Climbing Hill, Iowa
Current Conditions -  °F | °C
As of 7:52 PM on Saturday 25 Oct 2014 (Local Time) from KSUX Reporting Station
Clear Clear  
Wind Chill: 59°   Ceiling: Unl
Heat Index: 59°   Visibility: 10mi
Dew Point: 37°   Wind: 6mph
Humidity: 44%   Direction: 70°ENE
Pressure: 30.06"   Gusts: NA
Location:  42.34°N, 96.08°W
Report Text: KSUX 260052Z AUTO 07005KT 10SM CLR 15/03 A3006 RMK AO2 SLP181 T01500028
Loading
Personal Weather Stations






























Interactive Weather Map
Tropical Storm Tracking
New forecast layout! Learn more

10-Day Weather Forecast

Advertisements
Track Severe Weather on mobile